Alvord, Texas
Current Conditions -  °F | °C
As of 10:35 AM on Saturday 22 Nov 2014 (Local Time) from KLUD Reporting Station
Haze Haze  
Wind Chill: 59°   Ceiling: 200
Heat Index: 59°   Visibility: 1.2mi
Dew Point: 59°   Wind: 10mph
Humidity: 100%   Direction: 140°SE
Pressure: 30"   Gusts: NA
Location:  33.36°N, 97.69°W
Report Text: KLUD 221635Z AUTO 14009KT 1 1/4SM BR OVC002 15/15 A3000 RMK AO2 T01480148
Loading
Personal Weather Stations






























Interactive Weather Map New forecast layout! Learn more

10-Day Weather Forecast

Advertisements
Track Severe Weather on mobile